createdAt,value
2018-08-08T00:00:28.323Z,74.87
2018-08-08T00:02:57.270Z,73.95
2018-08-08T00:05:25.944Z,74.64
2018-08-08T00:07:54.662Z,74.43
2018-08-08T00:10:23.354Z,73.99
2018-08-08T00:12:51.991Z,74.27
2018-08-08T00:15:20.623Z,73.60
2018-08-08T00:17:49.299Z,73.53
2018-08-08T00:20:18.002Z,74.79
2018-08-08T00:22:46.653Z,74.22
2018-08-08T00:25:15.913Z,75.42
2018-08-08T00:27:44.868Z,75.18
2018-08-08T00:30:14.671Z,74.55
2018-08-08T00:32:43.719Z,74.68
2018-08-08T00:35:12.350Z,74.32
2018-08-08T00:37:41.064Z,74.05
2018-08-08T00:40:12.235Z,75.38
2018-08-08T00:42:41.343Z,75.01
2018-08-08T00:45:12.343Z,75.18
2018-08-08T00:47:41.826Z,75.30
2018-08-08T00:50:12.011Z,75.15
2018-08-08T00:52:41.254Z,76.13
2018-08-08T00:55:10.377Z,76.43
2018-08-08T00:57:39.556Z,75.42
2018-08-08T01:00:10.309Z,75.52
2018-08-08T01:02:39.016Z,75.91
2018-08-08T01:05:09.915Z,75.92
2018-08-08T01:07:38.698Z,76.76
2018-08-08T01:10:08.094Z,76.05
2018-08-08T01:12:36.767Z,75.80
2018-08-08T01:15:07.273Z,76.92
2018-08-08T01:17:36.119Z,76.56
2018-08-08T01:20:06.206Z,76.07
2018-08-08T01:22:34.967Z,76.40
2018-08-08T01:25:03.730Z,77.76
2018-08-08T01:27:32.370Z,78.49
2018-08-08T01:30:01.016Z,78.65
2018-08-08T01:32:29.655Z,78.03
2018-08-08T01:34:58.327Z,77.98
2018-08-08T01:37:26.919Z,79.85
2018-08-08T01:39:55.558Z,81.34
2018-08-08T01:42:24.198Z,82.43
2018-08-08T01:44:52.822Z,82.64
2018-08-08T01:47:21.462Z,82.44
2018-08-08T01:49:50.142Z,82.26
2018-08-08T01:52:18.766Z,82.56
2018-08-08T01:54:47.394Z,83.42
2018-08-08T01:57:16.011Z,82.93
2018-08-08T01:59:44.624Z,83.27
2018-08-08T02:02:13.259Z,83.57
2018-08-08T02:04:41.863Z,84.16
2018-08-08T02:07:10.544Z,84.65
2018-08-08T02:09:39.207Z,83.77
2018-08-08T02:12:07.991Z,82.89
2018-08-08T02:14:36.646Z,81.84
2018-08-08T02:17:05.315Z,81.48
2018-08-08T02:19:33.926Z,81.05
2018-08-08T02:22:02.578Z,80.63
2018-08-08T02:24:31.236Z,82.53
2018-08-08T02:26:59.863Z,82.79
2018-08-08T02:29:28.534Z,83.88
2018-08-08T02:31:57.159Z,84.42
2018-08-08T02:34:25.787Z,84.90
2018-08-08T02:36:54.420Z,85.47
2018-08-08T02:39:23.090Z,86.37
2018-08-08T02:41:51.751Z,86.90
2018-08-08T02:44:20.396Z,86.39
2018-08-08T02:46:49.006Z,86.28
2018-08-08T02:49:17.658Z,86.31
2018-08-08T02:51:46.274Z,86.57
2018-08-08T02:54:14.958Z,85.45
2018-08-08T02:56:43.605Z,85.29
2018-08-08T02:59:12.319Z,85.45
2018-08-08T03:01:40.950Z,85.94
2018-08-08T03:04:09.663Z,85.96
2018-08-08T03:06:38.300Z,86.34
2018-08-08T03:09:09.634Z,86.70
2018-08-08T03:11:38.304Z,86.19
2018-08-08T03:14:07.431Z,84.70
2018-08-08T03:16:36.292Z,84.71
2018-08-08T03:19:04.945Z,84.34
2018-08-08T03:21:33.614Z,86.08
2018-08-08T03:24:02.278Z,86.00
2018-08-08T03:26:30.986Z,86.43
2018-08-08T03:28:59.589Z,86.77
2018-08-08T03:31:28.203Z,87.03
2018-08-08T03:33:56.848Z,86.92
2018-08-08T03:36:25.515Z,87.62
2018-08-08T03:38:54.171Z,87.23
2018-08-08T03:41:22.851Z,87.45
2018-08-08T03:43:51.471Z,88.26
2018-08-08T03:46:20.206Z,87.52
2018-08-08T03:48:48.829Z,86.86
2018-08-08T03:51:17.445Z,87.27
2018-08-08T03:53:46.160Z,87.46
2018-08-08T03:56:14.838Z,85.92
2018-08-08T03:58:43.447Z,86.47
2018-08-08T04:01:12.055Z,86.10
2018-08-08T04:03:40.766Z,85.97
2018-08-08T04:06:09.373Z,85.36
2018-08-08T04:08:38.010Z,85.37
2018-08-08T04:11:06.621Z,85.20
2018-08-08T04:13:35.296Z,84.44
2018-08-08T04:16:03.914Z,84.47
2018-08-08T04:18:32.540Z,84.65
2018-08-08T04:21:01.240Z,84.03
2018-08-08T04:23:29.887Z,82.80
2018-08-08T04:25:58.554Z,83.12
2018-08-08T04:28:27.182Z,82.83
2018-08-08T04:30:55.876Z,83.50
2018-08-08T04:33:24.499Z,83.30
2018-08-08T04:35:53.412Z,82.67
2018-08-08T04:38:22.108Z,83.11
2018-08-08T04:40:50.856Z,82.64
2018-08-08T04:43:19.523Z,77.88
2018-08-08T04:45:48.215Z,74.55
2018-08-08T04:48:16.887Z,72.39
2018-08-08T04:50:45.540Z,71.07
2018-08-08T04:53:14.178Z,70.88
2018-08-08T04:55:42.887Z,70.69
2018-08-08T04:58:11.575Z,71.44
2018-08-08T05:00:40.250Z,71.72
2018-08-08T05:03:08.901Z,70.75
2018-08-08T05:05:37.563Z,70.59
2018-08-08T05:08:06.265Z,70.45
2018-08-08T05:10:34.975Z,69.92
2018-08-08T05:13:03.633Z,68.75
2018-08-08T05:15:32.280Z,68.36
2018-08-08T05:18:01.041Z,67.46
2018-08-08T05:20:29.739Z,66.89
2018-08-08T05:22:58.372Z,67.08
2018-08-08T05:25:27.108Z,66.06
2018-08-08T05:27:55.760Z,64.04
2018-08-08T05:30:24.483Z,64.51
2018-08-08T05:32:53.221Z,64.73
2018-08-08T05:35:21.954Z,64.86
2018-08-08T05:37:50.650Z,64.16
2018-08-08T05:40:21.630Z,62.04
2018-08-08T05:42:52.398Z,59.87
2018-08-08T05:45:21.705Z,59.71
2018-08-08T05:47:52.724Z,57.78
2018-08-08T05:50:21.466Z,57.26
2018-08-08T05:52:50.237Z,57.60
2018-08-08T05:55:20.011Z,57.97
2018-08-08T05:57:48.814Z,56.72
2018-08-08T06:00:23.195Z,56.35
2018-08-08T06:02:52.013Z,56.35
2018-08-08T06:05:20.711Z,57.00
2018-08-08T06:07:49.422Z,55.43
2018-08-08T06:10:18.123Z,55.06
2018-08-08T06:12:46.799Z,55.64
2018-08-08T06:15:16.635Z,54.87
2018-08-08T06:17:45.427Z,54.67
2018-08-08T06:20:17.307Z,55.61
2018-08-08T06:22:46.793Z,53.06
2018-08-08T06:25:15.618Z,54.44
2018-08-08T06:27:44.714Z,52.97
2018-08-08T06:30:17.628Z,54.76
2018-08-08T06:32:46.414Z,55.24
2018-08-08T06:35:16.271Z,54.31
2018-08-08T06:37:44.922Z,55.04
2018-08-08T06:40:14.602Z,54.68
2018-08-08T06:42:43.879Z,52.19
2018-08-08T06:45:14.132Z,52.09
2018-08-08T06:47:42.984Z,50.54
2018-08-08T06:50:12.536Z,51.29
2018-08-08T06:52:41.508Z,50.49
2018-08-08T06:55:12.920Z,48.85
2018-08-08T06:57:41.765Z,48.01
2018-08-08T07:00:18.776Z,48.46
2018-08-08T07:02:47.524Z,47.79
2018-08-08T07:05:17.217Z,47.41
2018-08-08T07:07:46.269Z,46.69
2018-08-08T07:10:14.976Z,47.51
2018-08-08T07:12:43.717Z,46.03
2018-08-08T07:15:13.995Z,44.45
2018-08-08T07:17:42.734Z,45.40
2018-08-08T07:20:12.624Z,45.17
2018-08-08T07:22:41.365Z,43.86
2018-08-08T07:25:11.983Z,42.94
2018-08-08T07:27:40.692Z,44.55
2018-08-08T07:30:12.512Z,44.17
2018-08-08T07:32:41.262Z,44.13
2018-08-08T07:35:10.721Z,44.40
2018-08-08T07:37:39.795Z,43.13
2018-08-08T07:40:10.301Z,42.82
2018-08-08T07:42:39.707Z,43.31
2018-08-08T07:45:10.612Z,41.43
2018-08-08T07:47:39.343Z,42.32
2018-08-08T07:50:09.264Z,41.76
2018-08-08T07:52:38.016Z,41.40
2018-08-08T07:55:07.544Z,41.73
2018-08-08T07:57:36.173Z,41.48
2018-08-08T08:00:09.152Z,41.98
2018-08-08T08:02:37.932Z,41.25
2018-08-08T08:05:06.678Z,40.42
2018-08-08T08:07:35.359Z,40.42
2018-08-08T08:10:04.450Z,40.46
2018-08-08T08:12:33.116Z,40.04
2018-08-08T08:15:01.787Z,39.66
2018-08-08T08:17:30.658Z,39.39
2018-08-08T08:19:59.292Z,39.20
2018-08-08T08:22:27.980Z,38.99
2018-08-08T08:24:56.763Z,38.49
2018-08-08T08:27:25.822Z,39.85
2018-08-08T08:29:54.532Z,40.04
2018-08-08T08:32:23.152Z,38.38
2018-08-08T08:34:51.798Z,37.84
2018-08-08T08:37:20.534Z,38.66
2018-08-08T08:39:49.458Z,38.70
2018-08-08T08:42:18.151Z,37.09
2018-08-08T08:44:46.911Z,39.54
2018-08-08T08:47:15.515Z,38.60
2018-08-08T08:49:44.434Z,37.93
2018-08-08T08:52:13.158Z,36.82
2018-08-08T08:54:41.840Z,37.39
2018-08-08T08:57:10.443Z,36.49
2018-08-08T08:59:39.205Z,37.04
2018-08-08T09:02:07.834Z,35.03
2018-08-08T09:04:36.511Z,35.43
2018-08-08T09:07:05.262Z,35.09
2018-08-08T09:09:33.921Z,34.24
2018-08-08T09:12:02.586Z,36.53
2018-08-08T09:14:31.235Z,37.42
2018-08-08T09:16:59.906Z,35.74
2018-08-08T09:19:28.531Z,34.93
2018-08-08T09:21:57.236Z,34.73
2018-08-08T09:24:25.896Z,36.21
2018-08-08T09:26:54.595Z,37.07
2018-08-08T09:29:23.295Z,37.95
2018-08-08T09:31:51.950Z,37.77
2018-08-08T09:34:20.666Z,36.86
2018-08-08T09:36:49.714Z,37.38
2018-08-08T09:39:18.376Z,36.26
2018-08-08T09:41:47.068Z,35.65
2018-08-08T09:44:15.754Z,36.26
2018-08-08T09:46:44.417Z,33.72
2018-08-08T09:49:13.042Z,35.10
2018-08-08T09:51:41.775Z,35.05
2018-08-08T09:54:10.463Z,34.69
2018-08-08T09:56:39.123Z,33.75
2018-08-08T09:59:07.975Z,33.88
2018-08-08T10:01:41.764Z,32.73
2018-08-08T10:04:15.656Z,34.24
2018-08-08T10:06:44.332Z,34.14
2018-08-08T10:09:13.129Z,32.41
2018-08-08T10:11:41.988Z,31.70
2018-08-08T10:14:10.782Z,32.23
2018-08-08T10:16:39.498Z,30.99
2018-08-08T10:19:08.243Z,30.03
2018-08-08T10:21:36.896Z,30.51
2018-08-08T10:24:05.617Z,30.34
2018-08-08T10:26:34.308Z,30.86
2018-08-08T10:29:02.920Z,30.93
2018-08-08T10:31:31.514Z,31.54
2018-08-08T10:34:00.191Z,29.45
2018-08-08T10:36:28.942Z,30.01
2018-08-08T10:38:57.562Z,30.21
2018-08-08T10:41:26.226Z,29.74
2018-08-08T10:43:55.648Z,31.05
2018-08-08T10:46:24.251Z,29.59
2018-08-08T10:48:52.905Z,27.91
2018-08-08T10:51:21.544Z,27.93
2018-08-08T10:53:50.175Z,28.66
2018-08-08T10:56:18.837Z,26.74
2018-08-08T10:58:47.423Z,26.40
2018-08-08T11:01:16.290Z,27.75
2018-08-08T11:03:44.948Z,27.26
2018-08-08T11:06:13.645Z,27.53
2018-08-08T11:08:42.394Z,28.75
2018-08-08T11:11:10.995Z,30.41
2018-08-08T11:13:39.701Z,30.92
2018-08-08T11:16:08.416Z,29.74
2018-08-08T11:18:37.077Z,29.36
2018-08-08T11:21:05.728Z,29.70
2018-08-08T11:23:34.354Z,30.28
2018-08-08T11:26:03.024Z,30.39
2018-08-08T11:28:31.695Z,28.91
2018-08-08T11:31:00.461Z,31.33
2018-08-08T11:33:29.081Z,30.42
2018-08-08T11:35:57.751Z,32.57
2018-08-08T11:38:26.453Z,31.94
2018-08-08T11:40:55.083Z,30.96
2018-08-08T11:43:23.744Z,30.29
2018-08-08T11:45:52.409Z,34.07
2018-08-08T11:48:21.050Z,42.74
2018-08-08T11:50:49.655Z,45.64
2018-08-08T11:53:18.285Z,47.26
2018-08-08T11:55:46.827Z,47.47
2018-08-08T11:58:15.449Z,46.19
2018-08-08T12:00:44.100Z,45.85
2018-08-08T12:03:12.691Z,43.76
2018-08-08T12:05:41.351Z,43.49
2018-08-08T12:08:09.959Z,40.66
2018-08-08T12:10:38.552Z,40.07
2018-08-08T12:13:07.242Z,40.96
2018-08-08T12:15:35.897Z,40.98
2018-08-08T12:18:04.626Z,40.95
2018-08-08T12:20:33.281Z,42.34
2018-08-08T12:23:01.960Z,40.86
2018-08-08T12:25:30.671Z,39.50
2018-08-08T12:27:59.313Z,39.71
2018-08-08T12:30:27.942Z,41.01
2018-08-08T12:32:56.576Z,42.09
2018-08-08T12:35:25.373Z,39.81
2018-08-08T12:37:53.973Z,41.66
2018-08-08T12:40:22.654Z,40.79
2018-08-08T12:42:51.355Z,40.79
2018-08-08T12:45:20.030Z,39.55
2018-08-08T12:47:48.683Z,39.79
2018-08-08T12:50:17.313Z,39.96
2018-08-08T12:52:45.946Z,39.16
2018-08-08T12:55:14.576Z,40.68
2018-08-08T12:57:43.224Z,42.04
2018-08-08T13:00:13.268Z,41.80
2018-08-08T13:02:41.921Z,41.19
2018-08-08T13:05:10.679Z,42.22
2018-08-08T13:07:39.377Z,41.33
2018-08-08T13:10:08.135Z,42.53
2018-08-08T13:12:36.775Z,42.39
2018-08-08T13:15:06.423Z,43.46
2018-08-08T13:17:35.052Z,42.21
2018-08-08T13:20:03.861Z,42.23
2018-08-08T13:22:32.505Z,41.84
2018-08-08T13:25:01.125Z,42.97
2018-08-08T13:27:29.839Z,42.87
2018-08-08T13:29:58.440Z,43.53
2018-08-08T13:32:27.271Z,41.90
2018-08-08T13:34:55.911Z,40.90
2018-08-08T13:37:24.579Z,42.29
2018-08-08T13:39:53.207Z,42.67
2018-08-08T13:42:21.952Z,42.17
2018-08-08T13:44:50.588Z,43.52
2018-08-08T13:47:19.289Z,44.03
2018-08-08T13:49:47.929Z,43.72
2018-08-08T13:52:16.602Z,43.59
2018-08-08T13:54:45.179Z,45.41
2018-08-08T13:57:13.806Z,44.44
2018-08-08T13:59:42.518Z,45.61
2018-08-08T14:02:11.187Z,45.13
2018-08-08T14:04:39.867Z,45.45
2018-08-08T14:07:08.768Z,46.14
2018-08-08T14:09:37.425Z,44.99
2018-08-08T14:12:06.157Z,45.95
2018-08-08T14:14:35.163Z,45.77
2018-08-08T14:17:04.300Z,46.37
2018-08-08T14:19:32.890Z,46.95
2018-08-08T14:22:01.527Z,47.02
2018-08-08T14:24:30.163Z,47.06
2018-08-08T14:26:58.875Z,46.99
2018-08-08T14:29:27.545Z,47.38
2018-08-08T14:31:56.195Z,46.57
2018-08-08T14:34:24.814Z,46.62
2018-08-08T14:36:53.454Z,46.22
2018-08-08T14:39:22.106Z,46.95
2018-08-08T14:41:50.801Z,47.40
2018-08-08T14:44:19.495Z,47.65
2018-08-08T14:46:48.468Z,47.25
2018-08-08T14:49:17.120Z,46.07
2018-08-08T14:51:46.005Z,46.77
2018-08-08T14:54:14.616Z,45.90
2018-08-08T14:56:43.282Z,46.28
2018-08-08T14:59:12.064Z,45.29
2018-08-08T15:01:40.669Z,44.79
2018-08-08T15:04:09.316Z,43.93
2018-08-08T15:06:38.490Z,45.01
2018-08-08T15:09:10.266Z,45.07
2018-08-08T15:11:38.965Z,45.94
2018-08-08T15:16:42.742Z,45.68
2018-08-08T15:19:11.503Z,44.85
2018-08-08T15:21:40.138Z,44.48
2018-08-08T15:24:08.956Z,45.43
2018-08-08T15:26:37.568Z,44.87
2018-08-08T15:29:06.215Z,44.11
2018-08-08T15:31:35.101Z,44.15
2018-08-08T15:34:03.826Z,43.85
2018-08-08T15:36:32.663Z,43.55
2018-08-08T15:39:01.266Z,43.30
2018-08-08T15:41:29.963Z,44.58
2018-08-08T15:43:58.899Z,45.60
2018-08-08T15:46:27.627Z,45.96
2018-08-08T15:48:56.255Z,46.34
2018-08-08T15:51:24.964Z,47.29
2018-08-08T15:53:53.865Z,47.49
2018-08-08T15:56:23.034Z,47.29
2018-08-08T15:58:51.991Z,48.63
2018-08-08T16:01:20.583Z,48.41
2018-08-08T16:03:49.250Z,48.62
2018-08-08T16:06:17.881Z,49.94
2018-08-08T16:08:46.475Z,49.94
2018-08-08T16:11:15.123Z,50.41
2018-08-08T16:13:44.874Z,49.78
2018-08-08T16:16:13.564Z,49.44
2018-08-08T16:18:42.258Z,50.29
2018-08-08T16:21:11.222Z,51.75
2018-08-08T16:23:40.181Z,51.88
2018-08-08T16:26:08.891Z,51.74
2018-08-08T16:28:37.517Z,52.10
2018-08-08T16:31:06.192Z,52.92
2018-08-08T16:33:35.119Z,52.12
2018-08-08T16:36:04.111Z,52.14
2018-08-08T16:38:32.759Z,51.81
2018-08-08T16:41:01.405Z,52.51
2018-08-08T16:43:30.072Z,52.40
2018-08-08T16:45:58.771Z,51.72
2018-08-08T16:48:27.681Z,52.17
2018-08-08T16:50:56.607Z,52.24
2018-08-08T16:53:28.173Z,53.37
2018-08-08T16:55:56.859Z,52.59
2018-08-08T16:58:25.518Z,53.03
2018-08-08T17:00:54.147Z,54.61
2018-08-08T17:03:22.780Z,54.19
2018-08-08T17:05:51.678Z,55.06
2018-08-08T17:08:20.328Z,54.49
2018-08-08T17:10:49.496Z,55.56
2018-08-08T17:13:18.164Z,56.19
2018-08-08T17:15:47.102Z,56.31
2018-08-08T17:18:15.770Z,56.13
2018-08-08T17:20:44.403Z,56.96
2018-08-08T17:23:13.062Z,56.78
2018-08-08T17:25:41.710Z,56.59
2018-08-08T17:28:10.411Z,56.79
2018-08-08T17:30:39.083Z,56.97
2018-08-08T17:33:07.986Z,56.58
2018-08-08T17:35:36.656Z,56.15
2018-08-08T17:38:05.634Z,56.29
2018-08-08T17:40:34.239Z,56.57
2018-08-08T17:43:02.958Z,56.39
2018-08-08T17:45:31.597Z,56.65
2018-08-08T17:48:00.774Z,56.92
2018-08-08T17:50:29.786Z,56.74
2018-08-08T17:52:58.422Z,56.85
2018-08-08T17:55:27.426Z,57.27
2018-08-08T17:57:56.084Z,57.51
2018-08-08T18:00:31.230Z,57.82
2018-08-08T18:02:59.849Z,58.13
2018-08-08T18:05:28.774Z,58.43
2018-08-08T18:07:57.490Z,58.64
2018-08-08T18:10:26.463Z,58.83
2018-08-08T18:12:55.666Z,59.43
2018-08-08T18:15:24.266Z,59.43
2018-08-08T18:17:52.867Z,59.85
2018-08-08T18:20:22.446Z,60.02
2018-08-08T18:22:51.064Z,59.89
2018-08-08T18:25:19.772Z,60.12
2018-08-08T18:27:48.429Z,60.08
2018-08-08T18:30:17.145Z,60.26
2018-08-08T18:32:45.795Z,60.72
2018-08-08T18:35:14.453Z,61.23
2018-08-08T18:37:43.192Z,61.25
2018-08-08T18:40:11.846Z,61.35
2018-08-08T18:42:40.489Z,61.19
2018-08-08T18:45:09.157Z,61.53
2018-08-08T18:47:37.802Z,61.49
2018-08-08T18:50:06.498Z,61.36
2018-08-08T18:52:35.157Z,61.68
2018-08-08T18:55:03.815Z,61.22
2018-08-08T18:57:32.509Z,61.86
2018-08-08T19:00:01.142Z,62.04
2018-08-08T19:02:29.831Z,62.30
2018-08-08T19:04:58.503Z,61.14
2018-08-08T19:07:27.140Z,62.00
2018-08-08T19:09:55.739Z,61.87
2018-08-08T19:12:24.410Z,62.28
2018-08-08T19:14:53.055Z,62.49
2018-08-08T19:17:21.732Z,61.65
2018-08-08T19:19:50.390Z,62.54
2018-08-08T19:22:19.023Z,62.67
2018-08-08T19:24:47.740Z,62.28
2018-08-08T19:27:16.450Z,63.23
2018-08-08T19:29:45.218Z,63.75
2018-08-08T19:32:13.861Z,63.71
2018-08-08T19:34:42.572Z,63.98
2018-08-08T19:37:11.245Z,63.86
2018-08-08T19:39:39.844Z,63.10
2018-08-08T19:42:08.751Z,63.10
2018-08-08T19:44:37.386Z,63.73
2018-08-08T19:47:06.349Z,64.22
2018-08-08T19:49:34.998Z,64.09
2018-08-08T19:52:03.637Z,65.09
2018-08-08T19:54:32.379Z,65.37
2018-08-08T19:57:00.986Z,65.66
2018-08-08T19:59:29.663Z,65.49
2018-08-08T20:01:58.374Z,65.74
2018-08-08T20:04:27.048Z,66.37
2018-08-08T20:06:55.679Z,66.12
2018-08-08T20:09:24.326Z,66.78
2018-08-08T20:11:52.974Z,66.34
2018-08-08T20:14:21.564Z,66.53
2018-08-08T20:16:50.195Z,66.65
2018-08-08T20:19:18.848Z,67.78
2018-08-08T20:21:47.521Z,67.12
2018-08-08T20:24:16.130Z,67.15
2018-08-08T20:26:44.769Z,67.26
2018-08-08T20:29:13.408Z,67.79
2018-08-08T20:31:42.043Z,67.72
2018-08-08T20:34:10.713Z,68.40
2018-08-08T20:36:39.350Z,68.26
2018-08-08T20:39:09.054Z,68.50
2018-08-08T20:41:37.970Z,67.47
2018-08-08T20:44:06.982Z,68.37
2018-08-08T20:46:35.603Z,68.50
2018-08-08T20:49:04.229Z,67.94
2018-08-08T20:51:32.830Z,68.51
2018-08-08T20:54:01.442Z,68.32
2018-08-08T20:56:30.070Z,69.54
2018-08-08T20:58:58.682Z,69.06
2018-08-08T21:01:27.286Z,69.67
2018-08-08T21:03:56.197Z,69.53
2018-08-08T21:06:24.823Z,70.49
2018-08-08T21:08:53.446Z,70.63
2018-08-08T21:11:22.094Z,71.41
2018-08-08T21:13:50.766Z,72.02
2018-08-08T21:16:19.383Z,72.26
2018-08-08T21:18:48.075Z,73.26
2018-08-08T21:21:16.766Z,73.49
2018-08-08T21:23:45.472Z,74.80
2018-08-08T21:26:14.279Z,75.00
2018-08-08T21:28:42.995Z,75.03
2018-08-08T21:31:11.751Z,75.98
2018-08-08T21:33:40.500Z,76.30
2018-08-08T21:36:09.433Z,76.20
2018-08-08T21:38:38.529Z,76.93
2018-08-08T21:41:07.463Z,76.70
2018-08-08T21:43:36.130Z,77.70
2018-08-08T21:46:04.828Z,78.15
2018-08-08T21:48:33.810Z,77.72
2018-08-08T21:51:02.540Z,78.53
2018-08-08T21:53:42.446Z,77.99
2018-08-08T21:56:22.095Z,78.15
2018-08-08T21:59:01.856Z,78.45
2018-08-08T22:01:41.492Z,78.75
2018-08-08T22:04:21.293Z,78.31
2018-08-08T22:07:01.109Z,78.07
2018-08-08T22:09:40.831Z,78.63
2018-08-08T22:12:20.214Z,78.50
2018-08-08T22:15:07.678Z,78.37
2018-08-08T22:17:47.248Z,77.52
2018-08-08T22:20:15.993Z,77.75
2018-08-08T22:22:44.681Z,78.27
2018-08-08T22:25:14.436Z,78.25
2018-08-08T22:27:43.071Z,78.21
2018-08-08T22:30:11.777Z,78.41
2018-08-08T22:32:40.403Z,78.59
2018-08-08T22:35:09.070Z,78.67
2018-08-08T22:37:37.700Z,78.72
2018-08-08T22:40:06.459Z,78.42
2018-08-08T22:42:35.090Z,78.13
2018-08-08T22:45:03.836Z,77.43
2018-08-08T22:47:32.492Z,77.36
2018-08-08T22:50:01.184Z,77.79
2018-08-08T22:52:29.888Z,77.64
2018-08-08T22:54:58.516Z,77.78
2018-08-08T22:57:27.190Z,77.70
2018-08-08T22:59:55.812Z,77.15
2018-08-08T23:02:24.464Z,77.76
2018-08-08T23:04:53.138Z,77.56
2018-08-08T23:07:21.779Z,77.55
2018-08-08T23:09:50.755Z,77.62
2018-08-08T23:12:19.366Z,77.33
2018-08-08T23:14:47.993Z,78.30
2018-08-08T23:17:16.603Z,78.65
2018-08-08T23:19:45.248Z,78.50
2018-08-08T23:22:23.788Z,78.29
2018-08-08T23:24:52.443Z,78.18
2018-08-08T23:27:21.052Z,78.71
2018-08-08T23:29:49.736Z,78.74
2018-08-08T23:32:18.347Z,79.29
2018-08-08T23:34:47.386Z,78.40
2018-08-08T23:37:16.083Z,78.33
2018-08-08T23:39:44.698Z,78.11
2018-08-08T23:42:13.385Z,77.95
2018-08-08T23:44:41.999Z,78.34
2018-08-08T23:47:10.618Z,78.31
2018-08-08T23:49:39.214Z,78.35
2018-08-08T23:52:07.884Z,78.93
2018-08-08T23:54:36.511Z,78.79
2018-08-08T23:57:06.120Z,78.65
2018-08-08T23:59:34.775Z,78.73
